Hollandale, Wisconsin
Current Conditions -  °F | °C
As of 12:35 AM on Saturday 25 Oct 2014 (Local Time) from KMRJ Reporting Station
Haze Haze  
Wind Chill: 59°   Ceiling: 300
Heat Index: 59°   Visibility: 2mi
Dew Point: 57°   Wind: 10mph
Humidity: 94%   Direction: 280°W
Pressure: 29.92"   Gusts: NA
Location:  42.88°N, 89.94°W
Report Text: KMRJ 250535Z AUTO 28009KT 2SM BR OVC003 15/14 A2992 RMK AO2
Loading
Personal Weather Stations






























Interactive Weather Map
Tropical Storm Tracking
New forecast layout! Learn more

10-Day Weather Forecast

Advertisements
Track Severe Weather on mobile